Time;durP1;ratioP1;P1;durP2;ratioP2;P2;SDS_P1;SDS_P2;PMS_P1;PMS_P2;Temp;Humidity;BMP_temperature;BMP_pressure;BME280_temperature;BME280_humidity;BME280_pressure;Samples;Min_cycle;Max_cycle;Signal;HPM_P1;HPM_P2
2023/03/22 00:00:06;;;;;;;18.50;10.83;;;10.40;99.90;;;10.57;83.49;97764.50;5097910;28;20470;-67
2023/03/22 00:02:33;;;;;;;13.73;11.63;;;10.40;99.80;;;10.45;83.07;97757.09;5089238;28;20499;-69
2023/03/22 00:05:00;;;;;;;12.73;11.40;;;10.30;99.80;;;10.47;83.66;97755.00;5086327;28;20447;-68
2023/03/22 00:07:30;;;;;;;11.53;10.33;;;10.30;99.80;;;10.31;83.72;97753.66;5081378;28;20508;-69
2023/03/22 00:09:57;;;;;;;13.27;11.87;;;10.20;99.90;;;10.27;84.37;97748.91;5075337;28;20466;-70
2023/03/22 00:12:24;;;;;;;11.70;10.50;;;10.10;99.90;;;9.79;84.79;97686.38;5078785;28;20755;-69
2023/03/22 00:14:52;;;;;;;15.63;11.53;;;10.00;99.90;;;10.12;84.41;97747.38;5078984;28;20456;-70
2023/03/22 00:17:21;;;;;;;11.87;10.50;;;9.90;99.90;;;10.05;84.88;97751.97;5077824;28;20452;-71
2023/03/22 00:19:49;;;;;;;12.70;11.07;;;9.70;99.90;;;9.95;85.42;97751.66;5075814;28;20468;-69
2023/03/22 00:22:16;;;;;;;12.30;11.00;;;9.70;99.90;;;9.97;84.60;97749.56;5086847;28;20487;-70
2023/03/22 00:24:45;;;;;;;14.13;10.70;;;9.70;99.90;;;10.04;84.20;97761.13;5107655;28;20446;-71
2023/03/22 00:27:13;;;;;;;11.13;10.03;;;9.60;99.90;;;10.06;84.77;97756.31;5101461;28;20969;-70
2023/03/22 00:29:40;;;;;;;10.70;9.53;;;9.70;99.90;;;10.12;84.80;97752.75;5106190;28;20462;-71
2023/03/22 00:32:08;;;;;;;11.53;10.00;;;9.70;99.90;;;10.07;83.72;97744.47;5127740;27;20461;-71
2023/03/22 00:34:35;;;;;;;13.73;10.70;;;9.80;99.90;;;10.07;83.51;97744.47;5120469;27;21032;-71
2023/03/22 00:37:02;;;;;;;11.40;10.27;;;9.70;99.90;;;9.92;84.23;97732.13;5108063;28;20435;-69
2023/03/22 00:39:29;;;;;;;11.13;9.87;;;9.60;99.90;;;9.76;85.28;97733.47;5097942;28;20469;-71
2023/03/22 00:41:58;;;;;;;10.17;9.20;;;9.50;99.90;;;9.67;86.17;97725.88;5093168;28;20451;-71
2023/03/22 00:44:27;;;;;;;11.93;10.73;;;9.50;99.90;;;9.68;85.77;97730.22;5101866;28;20437;-71
2023/03/22 00:46:56;;;;;;;11.63;10.43;;;9.40;99.90;;;9.62;85.64;97732.72;5093106;28;20559;-70
2023/03/22 00:49:24;;;;;;;10.87;9.80;;;9.40;99.90;;;9.56;86.64;97730.09;5091074;28;21084;-70
2023/03/22 00:51:52;;;;;;;15.97;10.47;;;9.30;99.90;;;9.53;86.90;97728.63;5086616;28;20575;-70
2023/03/22 00:54:19;;;;;;;10.23;9.20;;;9.20;99.90;;;9.47;86.57;97735.72;5132032;27;21004;-69
2023/03/22 00:56:48;;;;;;;12.20;9.83;;;9.10;99.90;;;9.44;87.09;97724.53;5104735;28;20537;-71
2023/03/22 00:59:17;;;;;;;11.73;10.17;;;9.20;99.90;;;9.43;86.08;97728.25;5107681;28;20513;-69
2023/03/22 01:01:45;;;;;;;13.70;10.50;;;9.20;99.90;;;9.28;86.57;97732.06;5098814;28;20476;-71
2023/03/22 01:04:16;;;;;;;10.27;9.27;;;9.00;99.90;;;9.34;85.93;97731.22;5106796;28;20457;-71
2023/03/22 01:06:45;;;;;;;11.77;9.87;;;9.00;99.90;;;9.16;86.61;97725.69;5117153;27;20461;-70
2023/03/22 01:09:13;;;;;;;11.63;10.43;;;8.80;99.90;;;9.23;85.69;97729.19;5098344;28;20443;-70
2023/03/22 01:11:42;;;;;;;11.17;9.90;;;8.80;99.90;;;8.88;86.08;97686.44;5108801;28;20454;-69
2023/03/22 01:14:15;;;;;;;11.60;9.93;;;8.80;99.90;;;9.21;86.09;97731.28;5109456;28;20817;-69
2023/03/22 01:16:44;;;;;;;10.60;9.50;;;8.80;99.90;;;9.23;86.29;97725.66;5102740;28;20451;-70
2023/03/22 01:19:11;;;;;;;10.03;9.03;;;8.80;99.90;;;8.83;86.13;97675.44;5091893;28;20522;-70
2023/03/22 01:21:38;;;;;;;11.07;9.70;;;8.90;99.90;;;9.19;86.89;97727.97;5100137;27;20442;-69
2023/03/22 01:24:06;;;;;;;10.33;9.33;;;8.80;99.90;;;9.15;86.43;97718.63;5097715;28;20933;-68
2023/03/22 01:26:34;;;;;;;10.57;9.30;;;8.80;99.90;;;9.13;87.22;97718.03;5125386;27;20450;-70
2023/03/22 01:29:01;;;;;;;10.90;9.50;;;8.80;99.90;;;8.96;86.87;97715.81;5113676;28;20450;-70
2023/03/22 01:31:28;;;;;;;12.03;10.80;;;8.60;99.90;;;8.94;88.04;97709.81;5085928;28;21290;-71
2023/03/22 01:33:57;;;;;;;11.30;10.17;;;8.50;99.90;;;8.81;87.70;97699.06;5112067;27;20836;-70
2023/03/22 01:36:24;;;;;;;14.40;10.47;;;8.40;99.90;;;8.88;87.71;97703.41;5079206;28;20504;-69
2023/03/22 01:38:52;;;;;;;11.37;9.60;;;8.40;99.90;;;8.75;87.49;97690.81;5081593;28;20473;-70
2023/03/22 01:41:19;;;;;;;12.87;10.00;;;8.40;99.90;;;8.80;87.29;97690.19;5074943;28;20483;-69
2023/03/22 01:44:08;;;;;;;13.80;9.83;;;8.40;99.90;;;8.85;87.23;97705.69;5109012;27;20544;-69
2023/03/22 01:46:36;;;;;;;11.70;9.93;;;8.40;99.90;;;8.79;87.21;97705.50;5072551;28;21043;-69
2023/03/22 01:49:06;;;;;;;10.53;9.37;;;8.40;99.90;;;8.73;87.21;97703.66;5077331;28;20451;-70
2023/03/22 01:51:34;;;;;;;12.00;10.23;;;8.40;99.90;;;8.48;87.77;97687.31;5075498;28;20469;-70
2023/03/22 01:54:05;;;;;;;12.13;10.50;;;8.40;99.90;;;8.60;87.49;97676.75;5086607;28;20466;-69
2023/03/22 01:56:40;;;;;;;11.53;10.43;;;8.40;99.90;;;8.65;87.35;97698.50;5073683;28;20528;-72
2023/03/22 01:59:11;;;;;;;10.60;9.60;;;8.40;99.90;;;8.58;88.46;97679.66;5072537;28;20459;-70
2023/03/22 02:01:39;;;;;;;11.80;10.60;;;8.40;99.90;;;8.65;88.82;97690.41;5076568;28;20451;-72
2023/03/22 02:04:12;;;;;;;14.50;11.20;;;8.40;99.90;;;8.59;89.46;97697.47;5079849;28;20458;-70
2023/03/22 02:06:40;;;;;;;15.63;11.83;;;8.30;99.90;;;8.61;89.78;97694.56;5076033;28;21636;-70
2023/03/22 02:09:10;;;;;;;12.40;11.00;;;8.30;99.90;;;8.65;89.56;97674.25;5077143;28;21119;-70
2023/03/22 02:11:41;;;;;;;11.73;10.20;;;8.40;99.90;;;8.70;89.08;97663.66;5072032;28;20503;-69
2023/03/22 02:14:31;;;;;;;11.80;10.53;;;8.40;99.90;;;8.80;88.40;97676.72;5090453;28;20481;-68
2023/03/22 02:17:30;;;;;;;11.23;10.00;;;8.50;99.90;;;8.85;87.65;97694.91;5096878;28;22213;-70
2023/03/22 02:20:40;;;;;;;12.60;10.37;;;8.50;99.90;;;8.79;87.79;97689.34;5096101;28;20476;-71
2023/03/22 02:23:48;;;;;;;13.10;10.73;;;8.50;99.90;;;8.76;87.76;97687.06;5101926;28;20448;-70
2023/03/22 02:26:49;;;;;;;11.27;10.17;;;8.40;99.90;;;8.78;87.86;97685.00;5096418;28;20453;-69
2023/03/22 02:29:28;;;;;;;13.27;9.47;;;8.40;99.90;;;8.73;88.33;97676.72;5057242;28;20444;-71
2023/03/22 02:32:31;;;;;;;12.63;11.00;;;8.40;99.90;;;8.73;88.88;97682.13;5109125;27;20446;-70
2023/03/22 02:35:50;;;;;;;14.23;12.30;;;8.40;99.90;;;8.83;89.27;97686.22;5095294;28;20482;-71
2023/03/22 02:39:00;;;;;;;11.23;10.10;;;8.50;99.90;;;8.80;88.67;97682.09;5093946;28;20443;-70
2023/03/22 02:41:40;;;;;;;14.50;10.27;;;8.50;99.90;;;8.71;89.75;97677.97;5100539;27;20486;-69
2023/03/22 02:44:17;;;;;;;11.73;10.63;;;8.50;99.90;;;8.68;89.46;97673.81;5113271;27;20441;-70
2023/03/22 02:46:50;;;;;;;13.37;11.93;;;8.40;99.90;;;8.80;89.73;97674.03;5083492;28;20448;-71
2023/03/22 02:49:25;;;;;;;14.00;10.10;;;8.50;99.90;;;8.77;89.25;97661.78;5096438;28;20466;-70
2023/03/22 02:52:01;;;;;;;11.60;9.33;;;8.60;99.90;;;8.82;88.65;97654.94;5126963;27;20503;-71
2023/03/22 02:54:38;;;;;;;10.53;9.53;;;8.60;99.90;;;8.89;88.08;97678.13;5113138;28;20470;-71
2023/03/22 02:57:11;;;;;;;11.27;9.93;;;8.70;99.90;;;8.81;87.72;97661.34;5098816;28;20453;-70
2023/03/22 02:59:42;;;;;;;10.67;9.50;;;8.60;99.90;;;8.81;88.14;97661.34;5076228;28;20458;-69
2023/03/22 03:02:13;;;;;;;10.83;9.30;;;8.60;99.90;;;8.81;87.77;97666.75;5080869;28;20444;-69
2023/03/22 03:04:46;;;;;;;9.93;9.03;;;8.60;99.90;;;8.80;87.67;97665.94;5077140;28;20471;-70
2023/03/22 03:07:18;;;;;;;10.43;9.40;;;8.50;99.90;;;8.63;87.46;97660.19;5095723;28;20482;-70
2023/03/22 03:09:51;;;;;;;10.97;9.80;;;8.50;99.90;;;8.59;88.11;97658.97;5082542;28;20474;-70
2023/03/22 03:12:21;;;;;;;10.33;9.40;;;8.40;99.90;;;8.27;88.04;97623.78;5076913;28;20453;-70
2023/03/22 03:14:49;;;;;;;10.30;8.73;;;8.30;99.90;;;8.47;88.25;97662.25;5078715;28;20446;-71
2023/03/22 03:17:31;;;;;;;10.93;9.80;;;8.30;99.90;;;8.34;88.83;97667.66;5089129;28;20448;-71
2023/03/22 03:20:20;;;;;;;10.87;9.70;;;8.30;99.90;;;8.42;88.52;97663.91;5101606;28;20477;-69
2023/03/22 03:23:03;;;;;;;9.70;8.73;;;8.20;99.90;;;8.33;88.60;97656.06;5103729;28;20447;-69
2023/03/22 03:25:42;;;;;;;11.27;9.53;;;8.10;99.90;;;8.26;89.35;97655.25;5100190;28;20455;-71
2023/03/22 03:28:21;;;;;;;10.37;9.37;;;8.10;99.90;;;8.28;89.49;97655.06;5106104;28;20439;-70
2023/03/22 03:30:57;;;;;;;11.47;9.77;;;8.10;99.90;;;8.16;89.75;97666.44;5110876;28;20442;-70
2023/03/22 03:33:27;;;;;;;10.40;9.30;;;8.10;99.90;;;7.96;89.81;97634.16;5079257;28;20455;-69
2023/03/22 03:36:00;;;;;;;11.70;9.20;;;8.10;99.90;;;7.68;89.54;97591.38;5077242;28;20455;-69
2023/03/22 03:38:32;;;;;;;13.90;8.83;;;8.10;99.90;;;8.11;90.80;97668.91;5110326;27;20453;-71
2023/03/22 03:41:06;;;;;;;10.67;9.00;;;8.10;99.90;;;8.19;89.32;97662.53;5075890;28;20472;-70
2023/03/22 03:43:36;;;;;;;9.17;8.33;;;8.10;99.90;;;8.10;89.40;97661.06;5077668;28;20505;-70
2023/03/22 03:46:03;;;;;;;12.80;10.60;;;8.00;99.90;;;8.08;89.96;97669.34;5079873;28;20510;-69
2023/03/22 03:48:33;;;;;;;14.87;10.47;;;8.00;99.90;;;8.14;89.90;97668.53;5077744;28;20445;-69
2023/03/22 03:51:02;;;;;;;10.67;9.57;;;8.00;99.90;;;8.08;90.09;97670.19;5072789;28;20974;-72
2023/03/22 03:53:30;;;;;;;10.23;9.17;;;8.00;99.90;;;8.06;90.34;97668.72;5076989;28;20470;-71
2023/03/22 03:55:59;;;;;;;11.10;9.97;;;8.00;99.90;;;7.69;90.20;97606.47;5105805;27;20465;-71
2023/03/22 03:58:29;;;;;;;11.93;10.10;;;8.00;99.90;;;7.56;90.15;97594.66;5077749;28;20461;-69
2023/03/22 04:00:58;;;;;;;11.40;10.20;;;8.00;99.90;;;8.00;90.39;97677.63;5076648;28;20481;-70
2023/03/22 04:03:26;;;;;;;13.00;11.00;;;8.00;99.90;;;8.00;90.02;97674.94;5096451;28;20453;-71
2023/03/22 04:05:54;;;;;;;11.70;10.50;;;8.00;99.90;;;8.03;90.43;97682.59;5074077;28;20496;-70
2023/03/22 04:08:21;;;;;;;23.43;10.50;;;8.00;99.90;;;8.10;90.04;97671.84;5078001;28;20458;-70
2023/03/22 04:10:55;;;;;;;11.07;9.97;;;8.00;99.90;;;7.89;89.92;97662.94;5078365;28;20492;-71
2023/03/22 04:13:23;;;;;;;12.53;9.80;;;8.00;99.90;;;8.07;90.06;97673.91;5090334;27;20496;-70
2023/03/22 04:16:00;;;;;;;11.63;10.20;;;8.00;99.90;;;8.10;90.08;97678.03;5071722;28;20981;-70
2023/03/22 04:18:29;;;;;;;10.37;9.37;;;8.00;99.90;;;8.05;89.88;97681.38;5088159;28;20461;-69
2023/03/22 04:20:56;;;;;;;11.00;9.57;;;7.90;99.90;;;8.05;89.88;97675.16;5103352;27;20821;-70
2023/03/22 04:23:24;;;;;;;10.80;9.80;;;7.90;99.90;;;8.01;90.08;97684.66;5073452;28;21022;-70
2023/03/22 04:25:52;;;;;;;11.07;9.97;;;7.90;99.90;;;7.97;90.16;97684.25;5093216;28;20844;-71
2023/03/22 04:28:22;;;;;;;10.43;9.43;;;7.90;99.90;;;7.85;91.23;97686.75;5121077;27;20539;-71
2023/03/22 04:30:51;;;;;;;10.10;9.10;;;7.90;99.90;;;7.93;90.68;97678.44;5124750;27;20456;-70
2023/03/22 04:33:21;;;;;;;10.13;9.10;;;7.90;99.90;;;7.96;90.55;97684.44;5121191;27;20457;-70
2023/03/22 04:35:49;;;;;;;14.13;9.30;;;7.90;99.90;;;7.92;90.56;97684.88;5076108;28;20479;-70
2023/03/22 04:38:17;;;;;;;13.17;10.73;;;7.90;99.90;;;7.93;91.06;97688.41;5071915;28;20504;-70
2023/03/22 04:40:45;;;;;;;10.97;9.83;;;7.90;99.90;;;7.99;90.55;97678.69;5102864;28;20469;-70
2023/03/22 04:43:14;;;;;;;12.07;10.53;;;7.90;99.90;;;7.96;90.54;97677.22;5092708;28;20785;-70
2023/03/22 04:45:42;;;;;;;11.70;10.50;;;7.90;99.90;;;7.86;91.10;97687.53;5071244;28;20478;-70
2023/03/22 04:48:12;;;;;;;17.10;10.23;;;7.90;99.90;;;7.85;91.03;97681.34;5093963;28;20797;-71
2023/03/22 04:50:40;;;;;;;11.10;9.60;;;7.90;99.90;;;7.64;90.45;97631.28;5105653;27;20539;-69
2023/03/22 04:53:08;;;;;;;11.33;10.10;;;7.90;99.90;;;7.90;90.44;97683.44;5088115;28;20454;-71
2023/03/22 04:55:35;;;;;;;13.07;10.60;;;7.90;99.90;;;7.90;90.26;97688.81;5075892;28;20520;-70
2023/03/22 04:58:08;;;;;;;10.47;9.53;;;7.90;99.90;;;7.89;89.82;97676.41;5084086;28;20529;-72
2023/03/22 05:00:36;;;;;;;12.77;9.33;;;7.90;99.90;;;7.78;90.09;97681.34;5091639;28;20468;-71
2023/03/22 05:03:04;;;;;;;11.53;10.30;;;7.80;99.90;;;7.76;90.08;97688.81;5083787;28;20486;-70
2023/03/22 05:05:32;;;;;;;11.87;9.60;;;7.70;99.90;;;7.80;89.85;97681.13;5093506;27;20457;-72
2023/03/22 05:08:00;;;;;;;11.80;10.00;;;7.70;99.90;;;7.75;90.24;97680.94;5080247;28;20480;-71
2023/03/22 05:10:27;;;;;;;11.20;10.03;;;7.70;99.90;;;7.65;91.08;97681.34;5074634;28;20515;-71
2023/03/22 05:12:55;;;;;;;11.53;9.80;;;7.60;99.90;;;7.58;91.18;97681.31;5076146;28;20450;-70
2023/03/22 05:15:22;;;;;;;12.00;10.80;;;7.60;99.90;;;7.71;90.49;97683.19;5107818;27;20541;-71
2023/03/22 05:17:50;;;;;;;11.77;10.57;;;7.60;99.90;;;7.72;90.26;97676.78;5079774;28;20443;-72
2023/03/22 05:20:19;;;;;;;11.97;9.40;;;7.50;99.90;;;7.64;90.02;97677.81;5092424;28;20445;-71
2023/03/22 05:22:49;;;;;;;15.77;10.40;;;7.50;99.90;;;7.56;90.28;97667.25;5096280;28;21167;-71
2023/03/22 05:25:18;;;;;;;12.47;11.27;;;7.40;99.90;;;7.60;90.21;97673.88;5099286;28;20467;-69
2023/03/22 05:27:45;;;;;;;12.77;11.53;;;7.40;99.90;;;7.58;90.81;97677.78;5089398;28;20465;-70
2023/03/22 05:30:13;;;;;;;13.70;10.83;;;7.40;99.90;;;7.59;91.13;97671.41;5097117;28;20450;-71
2023/03/22 05:32:42;;;;;;;11.63;10.50;;;7.30;99.90;;;7.59;90.71;97668.72;5119837;27;20456;-71
2023/03/22 05:35:10;;;;;;;12.60;11.30;;;7.40;99.90;;;7.62;90.35;97671.81;5101310;28;20535;-69
2023/03/22 05:37:38;;;;;;;14.13;10.80;;;7.50;99.90;;;7.64;90.53;97675.13;5116894;27;20512;-69
2023/03/22 05:40:08;;;;;;;13.37;11.17;;;7.50;99.90;;;7.75;89.98;97671.00;5090246;27;20545;-68
2023/03/22 05:42:37;;;;;;;12.53;11.00;;;7.60;99.90;;;7.81;89.46;97672.06;5073895;28;20483;-70
2023/03/22 05:45:06;;;;;;;12.27;10.47;;;7.60;99.90;;;7.74;89.70;97668.50;5076471;28;20847;-68
2023/03/22 05:47:33;;;;;;;11.53;10.43;;;7.70;99.90;;;7.74;89.49;97663.97;5074522;28;20469;-68
2023/03/22 05:50:01;;;;;;;12.60;11.30;;;7.70;99.90;;;7.84;89.12;97671.63;5093268;27;20550;-68
2023/03/22 05:52:28;;;;;;;11.90;10.77;;;7.80;99.90;;;7.81;88.85;97661.28;5075821;28;20459;-69
2023/03/22 05:54:55;;;;;;;12.50;11.30;;;7.80;99.90;;;7.84;88.35;97652.81;5074515;28;20451;-68
2023/03/22 05:57:23;;;;;;;14.93;11.07;;;7.80;99.90;;;7.92;88.37;97660.66;5074025;28;20957;-69
2023/03/22 05:59:53;;;;;;;12.90;11.30;;;7.90;99.90;;;7.80;87.73;97643.47;5075421;28;20800;-69
2023/03/22 06:02:20;;;;;;;12.23;10.93;;;7.90;99.90;;;7.69;87.99;97614.53;5090820;27;20511;-69
2023/03/22 06:04:48;;;;;;;11.13;9.93;;;7.90;99.90;;;8.04;86.52;97654.66;5075716;28;20955;-68
2023/03/22 06:07:15;;;;;;;11.60;10.43;;;8.00;99.90;;;8.14;86.18;97649.69;5074131;28;22440;-68
2023/03/22 06:09:43;;;;;;;12.30;9.70;;;8.00;99.90;;;8.18;85.94;97658.16;5078498;28;20448;-69
2023/03/22 06:12:11;;;;;;;12.27;10.50;;;8.10;99.90;;;8.25;85.47;97650.06;5074446;28;20461;-67
2023/03/22 06:14:39;;;;;;;12.70;9.67;;;8.10;99.90;;;8.36;85.49;97649.44;5076727;28;20520;-68
2023/03/22 06:17:10;;;;;;;11.00;9.90;;;8.20;99.90;;;8.33;84.61;97647.16;5088694;27;20609;-67
2023/03/22 06:19:37;;;;;;;12.70;10.30;;;8.20;99.90;;;8.29;84.49;97643.25;5100448;27;20843;-68
2023/03/22 06:22:05;;;;;;;11.53;10.43;;;8.30;99.90;;;8.55;84.23;97642.38;5085384;28;20467;-71
2023/03/22 06:24:33;;;;;;;11.60;9.90;;;8.40;99.90;;;8.50;83.48;97648.41;5086870;28;20520;-69
2023/03/22 06:27:00;;;;;;;11.70;10.50;;;8.40;99.00;;;8.66;83.79;97642.78;5102771;27;20478;-68
2023/03/22 06:29:28;;;;;;;12.90;10.83;;;8.50;99.00;;;8.67;82.82;97639.03;5091040;28;20454;-70
2023/03/22 06:31:55;;;;;;;11.47;9.40;;;8.60;97.60;;;8.70;82.17;97650.19;5107416;28;20443;-67
2023/03/22 06:34:25;;;;;;;12.50;10.77;;;8.60;97.20;;;8.52;81.86;97602.44;5102244;28;20448;-69
2023/03/22 06:36:59;;;;;;;10.60;9.60;;;8.80;96.10;;;8.83;81.32;97643.13;5099827;28;20450;-72
2023/03/22 06:39:27;;;;;;;12.90;10.10;;;8.90;95.50;;;8.75;82.05;97644.19;5083364;28;20483;-69
2023/03/22 06:41:54;;;;;;;12.60;10.87;;;8.80;95.50;;;8.70;81.98;97636.72;5073164;28;20480;-68
2023/03/22 06:44:21;;;;;;;12.07;10.90;;;8.80;95.20;;;8.91;81.25;97656.34;5077791;28;21082;-69
2023/03/22 06:46:48;;;;;;;12.13;10.40;;;8.90;95.40;;;9.05;80.31;97651.72;5072585;28;21030;-69
2023/03/22 06:49:18;;;;;;;13.73;10.70;;;8.90;94.60;;;9.05;80.40;97647.19;5076091;28;20460;-68
2023/03/22 06:51:47;;;;;;;10.33;9.33;;;9.00;94.50;;;9.06;80.97;97648.81;5069395;28;20474;-68
2023/03/22 06:54:15;;;;;;;10.63;9.63;;;9.00;94.40;;;9.21;79.51;97650.41;5072349;28;20459;-67
2023/03/22 06:56:42;;;;;;;14.60;10.00;;;9.10;94.00;;;9.42;79.18;97648.41;5074040;28;20455;-67
2023/03/22 06:59:09;;;;;;;16.87;12.20;;;9.20;94.10;;;9.58;78.78;97655.19;5092736;27;20478;-68
2023/03/22 07:01:37;;;;;;;11.50;10.40;;;9.30;93.30;;;9.70;78.27;97649.91;5077925;28;20518;-69
2023/03/22 07:04:04;;;;;;;11.57;10.37;;;9.50;92.80;;;9.80;77.98;97650.25;5076636;28;20463;-67
2023/03/22 07:06:33;;;;;;;13.60;10.30;;;9.60;92.40;;;9.98;76.78;97645.94;5107028;27;20490;-67
2023/03/22 07:09:01;;;;;;;11.13;10.00;;;9.70;92.00;;;10.14;76.12;97642.69;5077669;28;20447;-66
2023/03/22 07:11:29;;;;;;;11.43;10.27;;;9.80;91.80;;;10.13;76.18;97649.13;5083683;28;20454;-67
2023/03/22 07:13:56;;;;;;;12.07;10.53;;;9.90;91.30;;;10.39;74.90;97649.94;5118018;27;20454;-68
2023/03/22 07:16:25;;;;;;;12.50;11.20;;;10.00;90.90;;;10.58;74.36;97658.88;5085386;28;20475;-65
2023/03/22 07:18:53;;;;;;;11.27;10.27;;;10.20;90.70;;;10.81;73.21;97651.16;5091297;28;20461;-67
2023/03/22 07:21:20;;;;;;;11.07;9.57;;;10.30;90.20;;;10.76;72.86;97658.06;5084699;28;20498;-69
2023/03/22 07:23:47;;;;;;;11.07;10.07;;;10.50;88.20;;;10.84;71.61;97656.09;5084844;28;20460;-66
2023/03/22 07:26:16;;;;;;;12.57;10.43;;;10.50;87.10;;;10.91;72.35;97659.56;5090485;28;20537;-67
2023/03/22 07:28:43;;;;;;;11.23;9.97;;;10.60;86.70;;;10.96;71.59;97654.31;5083719;28;20468;-66
2023/03/22 07:31:12;;;;;;;11.30;9.67;;;10.80;85.80;;;11.16;70.36;97661.34;5101314;27;20452;-67
2023/03/22 07:33:40;;;;;;;12.20;9.43;;;10.90;85.50;;;11.09;70.62;97657.91;5084657;28;20470;-66
2023/03/22 07:36:09;;;;;;;11.73;10.53;;;10.90;85.10;;;11.29;70.00;97653.03;5075507;28;20664;-65
2023/03/22 07:38:37;;;;;;;10.87;9.47;;;11.00;85.10;;;11.03;69.92;97657.75;5066205;28;20529;-67
2023/03/22 07:41:05;;;;;;;12.20;9.90;;;11.00;84.10;;;11.23;69.89;97653.97;5071435;28;21033;-67
2023/03/22 07:43:34;;;;;;;9.60;8.70;;;11.10;84.50;;;11.51;68.06;97665.25;5067848;28;20517;-67
2023/03/22 07:46:02;;;;;;;13.80;8.93;;;11.20;83.80;;;11.52;68.13;97651.50;5079246;28;21097;-67
2023/03/22 07:48:30;;;;;;;11.60;9.67;;;11.30;83.40;;;11.49;67.92;97657.38;5078661;28;21328;-66
2023/03/22 07:50:57;;;;;;;10.63;9.53;;;11.40;83.00;;;11.56;67.96;97658.09;5079789;28;20471;-69
2023/03/22 07:53:25;;;;;;;12.60;9.50;;;11.40;82.80;;;11.44;67.37;97616.63;5080488;28;20457;-66
2023/03/22 07:55:52;;;;;;;12.07;9.97;;;11.50;82.50;;;11.86;66.40;97651.00;5114282;27;20700;-67
2023/03/22 07:58:19;;;;;;;9.87;8.90;;;11.60;82.40;;;11.98;66.10;97651.84;5092327;28;20519;-68
2023/03/22 08:00:49;;;;;;;13.73;8.77;;;11.70;82.10;;;11.85;65.72;97647.44;5077712;28;20458;-72
2023/03/22 08:03:16;;;;;;;12.53;9.20;;;11.80;81.50;;;12.15;65.16;97641.16;5076884;28;20622;-67
2023/03/22 08:05:44;;;;;;;13.40;9.20;;;11.90;81.50;;;12.19;64.81;97642.31;5095936;27;20459;-66
2023/03/22 08:08:12;;;;;;;9.57;7.50;;;12.00;81.10;;;12.52;63.95;97640.09;5068027;28;20451;-66
2023/03/22 08:10:39;;;;;;;8.63;7.77;;;12.20;80.90;;;12.55;63.37;97646.94;5079981;28;20460;-68
2023/03/22 08:13:07;;;;;;;10.90;7.70;;;12.30;80.40;;;12.77;62.65;97638.16;5086840;27;20468;-68
2023/03/22 08:15:36;;;;;;;9.40;7.97;;;12.40;80.00;;;12.85;61.62;97630.47;5079970;28;20465;-66
2023/03/22 08:18:07;;;;;;;8.60;7.70;;;12.60;79.40;;;12.98;62.74;97634.81;5070364;28;20451;-68
2023/03/22 08:20:36;;;;;;;11.70;8.87;;;12.60;79.60;;;13.13;61.89;97638.91;5112130;27;20467;-67
2023/03/22 08:23:04;;;;;;;11.03;9.23;;;12.80;79.50;;;13.11;61.56;97644.56;5102305;27;20467;-67
2023/03/22 08:25:32;;;;;;;9.27;7.67;;;12.90;78.90;;;13.31;60.00;97644.13;5091284;28;20451;-68
2023/03/22 08:27:59;;;;;;;7.43;6.83;;;13.00;78.20;;;13.28;57.61;97643.78;5093418;28;20469;-68
2023/03/22 08:30:27;;;;;;;9.33;7.43;;;13.10;75.60;;;13.18;58.38;97645.22;5092015;28;20516;-68
2023/03/22 08:32:54;;;;;;;10.60;9.50;;;13.10;75.60;;;13.39;58.05;97639.38;5101916;28;20448;-68
2023/03/22 08:35:23;;;;;;;8.27;7.43;;;13.20;75.20;;;13.41;58.03;97639.94;5090053;28;20445;-67
2023/03/22 08:37:55;;;;;;;6.27;5.27;;;13.30;75.30;;;13.54;57.18;97631.53;5105145;27;20448;-67
2023/03/22 08:40:24;;;;;;;11.80;6.70;;;13.40;74.80;;;13.60;57.49;97644.16;5086389;28;20816;-67
2023/03/22 08:42:51;;;;;;;9.00;8.10;;;13.40;74.70;;;13.71;56.75;97638.88;5086715;28;20470;-68
2023/03/22 08:45:19;;;;;;;12.80;7.80;;;13.50;74.30;;;13.55;56.62;97633.19;5079088;28;20458;-68
2023/03/22 08:47:46;;;;;;;7.33;5.07;;;13.50;73.20;;;13.83;56.17;97636.91;5086881;28;20454;-69
2023/03/22 08:50:14;;;;;;;5.77;5.23;;;13.70;73.40;;;13.96;55.17;97643.09;5086559;28;20459;-68
2023/03/22 08:52:42;;;;;;;4.87;4.40;;;13.80;72.50;;;14.03;54.45;97643.78;5085438;28;20456;-68
2023/03/22 08:55:11;;;;;;;5.93;5.33;;;13.90;71.80;;;14.06;54.86;97632.41;5074722;28;20466;-68
2023/03/22 08:57:38;;;;;;;8.50;7.70;;;13.90;71.60;;;14.27;54.29;97635.44;5087858;28;20463;-68
2023/03/22 09:00:09;;;;;;;4.27;3.97;;;14.00;71.40;;;14.10;53.67;97595.53;5078471;28;20446;-68
2023/03/22 09:02:37;;;;;;;4.97;4.50;;;14.20;71.00;;;14.15;54.12;97630.09;5084328;28;20476;-69
2023/03/22 09:05:05;;;;;;;5.70;4.60;;;14.20;70.70;;;13.95;54.30;97631.44;5096606;28;20532;-68
2023/03/22 09:07:32;;;;;;;5.13;4.63;;;14.10;70.10;;;14.14;53.88;97623.81;5085821;28;20472;-68
2023/03/22 09:10:01;;;;;;;5.53;4.87;;;14.00;70.20;;;14.21;54.24;97625.56;5086519;28;20494;-68
2023/03/22 09:12:28;;;;;;;6.00;5.40;;;14.10;70.30;;;14.10;54.54;97617.25;5090271;28;20455;-68
2023/03/22 09:14:58;;;;;;;6.50;5.07;;;14.10;70.30;;;14.06;54.71;97621.53;5085328;28;20464;-68
2023/03/22 09:17:26;;;;;;;7.60;5.60;;;14.00;70.40;;;14.41;53.87;97620.41;5093573;28;20469;-68
2023/03/22 09:19:53;;;;;;;5.33;4.83;;;14.20;70.60;;;14.34;53.39;97622.50;5087121;28;20456;-69
2023/03/22 09:22:20;;;;;;;6.60;5.87;;;14.20;69.40;;;14.47;52.11;97625.91;5076879;28;20488;-68
2023/03/22 09:24:48;;;;;;;4.60;4.20;;;14.30;68.80;;;14.72;51.98;97622.78;5121515;27;20466;-67
2023/03/22 09:27:16;;;;;;;4.27;3.50;;;14.40;68.10;;;14.72;51.34;97617.34;5134910;27;20448;-68
2023/03/22 09:29:43;;;;;;;3.93;3.23;;;14.60;67.20;;;14.81;50.57;97615.81;5083865;28;20461;-67
2023/03/22 09:32:12;;;;;;;4.90;3.90;;;14.60;66.40;;;14.54;50.67;97615.69;5118687;27;20439;-68
2023/03/22 09:34:39;;;;;;;4.97;4.33;;;14.50;65.30;;;14.84;50.23;97609.03;5071178;28;20849;-70
2023/03/22 09:37:06;;;;;;;8.00;4.87;;;14.70;65.50;;;15.27;49.87;97612.81;5071309;28;22228;-72
2023/03/22 09:39:37;;;;;;;4.97;4.33;;;15.00;65.40;;;15.52;49.49;97622.28;5079339;28;20451;-67
2023/03/22 09:42:06;;;;;;;5.17;3.10;;;15.30;65.20;;;15.63;48.73;97620.50;5083940;28;20478;-76
2023/03/22 09:44:41;;;;;;;4.10;3.07;;;15.40;64.50;;;15.83;47.93;97617.13;5078973;28;20461;-71
2023/03/22 09:47:17;;;;;;;2.73;2.53;;;15.70;63.60;;;16.21;47.25;97619.88;5075180;28;20841;-68
2023/03/22 09:49:49;;;;;;;2.60;2.40;;;15.90;63.10;;;15.48;48.65;97615.72;5128794;27;20547;-69
2023/03/22 09:52:18;;;;;;;2.40;2.23;;;15.60;62.30;;;15.61;48.47;97605.50;5074789;28;20457;-69
2023/03/22 09:54:47;;;;;;;3.53;2.80;;;15.60;62.40;;;15.45;48.91;97613.53;5111206;27;21111;-69
2023/03/22 09:57:28;;;;;;;2.67;2.40;;;15.40;62.60;;;15.62;48.97;97601.69;5114498;27;20457;-75
2023/03/22 10:00:10;;;;;;;3.03;2.77;;;15.40;63.00;;;15.46;49.08;97587.94;5079015;28;20455;-70
2023/03/22 10:02:55;;;;;;;3.10;2.80;;;15.50;62.70;;;15.54;48.63;97605.72;5076660;28;20548;-70
2023/03/22 10:05:31;;;;;;;3.07;2.87;;;15.50;62.60;;;15.73;48.59;97598.78;5075805;28;20508;-69
2023/03/22 10:08:33;;;;;;;4.23;2.70;;;15.50;62.80;;;15.56;49.08;97593.50;5075195;28;20529;-69
2023/03/22 10:11:01;;;;;;;2.83;2.47;;;15.40;62.80;;;15.15;48.12;97546.81;5100851;27;20446;-69
2023/03/22 10:13:36;;;;;;;2.67;2.40;;;15.40;61.60;;;15.37;48.02;97592.19;5078728;28;20595;-65
2023/03/22 10:16:11;;;;;;;2.70;2.50;;;15.40;61.40;;;15.38;48.49;97594.69;5077451;28;20498;-72
2023/03/22 10:18:45;;;;;;;4.03;2.73;;;15.30;61.30;;;15.51;48.34;97587.97;5074576;28;20559;-76
2023/03/22 10:21:14;;;;;;;3.37;2.67;;;15.40;61.20;;;15.77;47.51;97582.75;5072535;28;20795;-69
2023/03/22 10:23:47;;;;;;;3.27;2.97;;;15.50;61.30;;;15.88;47.33;97582.84;5088194;28;20479;-69
2023/03/22 10:26:21;;;;;;;3.33;2.80;;;15.70;61.30;;;16.01;47.20;97577.00;5080300;28;20906;-68
2023/03/22 10:28:58;;;;;;;7.00;4.60;;;15.80;60.90;;;15.90;47.11;97572.53;5101299;28;20458;-69
2023/03/22 10:31:29;;;;;;;6.00;5.07;;;15.80;60.40;;;15.64;47.52;97578.59;5097220;28;22480;-69
2023/03/22 10:34:01;;;;;;;3.50;3.20;;;15.60;60.40;;;15.88;47.39;97566.50;5097963;27;20553;-68